Time;durP1;ratioP1;P1;durP2;ratioP2;P2;SDS_P1;SDS_P2;PMS_P1;PMS_P2;Temp;Humidity;BMP_temperature;BMP_pressure;BME280_temperature;BME280_humidity;BME280_pressure;Samples;Min_cycle;Max_cycle;Signal;HPM_P1;HPM_P2
2021/12/22 00:00:11;;;;;;;10.87;6.53;;;1.10;99.90;;;;;;5078282;28;20478;-69
2021/12/22 00:02:45;;;;;;;13.97;8.67;;;1.00;99.90;;;;;;5073825;28;20937;-70
2021/12/22 00:05:12;;;;;;;11.87;8.50;;;1.00;99.90;;;;;;5077302;28;20487;-69
2021/12/22 00:07:39;;;;;;;12.90;7.47;;;1.00;99.90;;;;;;5077493;28;20465;-69
2021/12/22 00:10:06;;;;;;;16.03;7.97;;;1.00;99.90;;;;;;5077535;28;20539;-69
2021/12/22 00:12:33;;;;;;;15.90;8.50;;;0.90;99.90;;;;;;5077260;28;20929;-69
2021/12/22 00:15:00;;;;;;;12.60;7.43;;;1.00;99.90;;;;;;5076986;28;20458;-69
2021/12/22 00:17:28;;;;;;;12.53;7.77;;;1.10;99.90;;;;;;5077285;28;20450;-69
2021/12/22 00:19:54;;;;;;;11.73;8.10;;;1.10;99.90;;;;;;5077275;28;20474;-69
2021/12/22 00:22:21;;;;;;;10.90;7.60;;;1.10;99.90;;;;;;5077026;28;20466;-70
2021/12/22 00:24:48;;;;;;;12.33;8.53;;;1.10;99.90;;;;;;5077295;28;20461;-69
2021/12/22 00:27:17;;;;;;;11.87;8.37;;;1.20;99.90;;;;;;5077410;28;20454;-69
2021/12/22 00:29:47;;;;;;;15.60;8.53;;;1.20;99.90;;;;;;5077154;28;20459;-70
2021/12/22 00:32:16;;;;;;;13.70;8.73;;;1.30;99.90;;;;;;5077209;28;20813;-68
2021/12/22 00:34:47;;;;;;;11.33;7.80;;;1.20;99.90;;;;;;5076951;28;20458;-69
2021/12/22 00:37:16;;;;;;;11.90;7.63;;;1.10;99.90;;;;;;5077064;28;20442;-69
2021/12/22 00:39:43;;;;;;;14.67;8.50;;;1.10;99.90;;;;;;5076899;28;20461;-69
2021/12/22 00:42:10;;;;;;;16.03;9.30;;;1.20;99.90;;;;;;5076782;28;20458;-69
2021/12/22 00:44:37;;;;;;;14.13;7.43;;;1.20;99.90;;;;;;5076810;28;20465;-69
2021/12/22 00:47:04;;;;;;;14.47;8.60;;;1.20;99.90;;;;;;5076775;28;20458;-68
2021/12/22 00:49:31;;;;;;;13.73;8.70;;;1.20;99.90;;;;;;5076364;28;20458;-69
2021/12/22 00:51:59;;;;;;;15.27;9.07;;;1.20;99.90;;;;;;5076612;28;20465;-69
2021/12/22 00:54:26;;;;;;;15.20;9.70;;;1.30;99.90;;;;;;5076911;28;20463;-69
2021/12/22 00:56:56;;;;;;;13.50;9.00;;;1.20;99.90;;;;;;5076563;28;20465;-69
2021/12/22 00:59:22;;;;;;;14.80;10.40;;;1.20;99.90;;;;;;5076043;28;20458;-69
2021/12/22 01:01:49;;;;;;;13.10;8.60;;;1.20;99.90;;;;;;5076666;28;20493;-69
2021/12/22 01:04:16;;;;;;;13.57;8.83;;;1.20;99.90;;;;;;5075877;28;20874;-69
2021/12/22 01:06:43;;;;;;;14.60;9.17;;;1.20;99.90;;;;;;5076247;28;20468;-69
2021/12/22 01:09:11;;;;;;;12.40;9.47;;;1.30;99.90;;;;;;5077345;28;20773;-69
2021/12/22 01:11:38;;;;;;;13.10;8.87;;;1.30;99.90;;;;;;5076407;28;20465;-69
2021/12/22 01:14:06;;;;;;;13.50;8.57;;;1.40;99.90;;;;;;5075822;28;20465;-69
2021/12/22 01:16:34;;;;;;;14.07;9.13;;;1.30;99.90;;;;;;5075533;28;20476;-69
2021/12/22 01:19:04;;;;;;;14.70;10.50;;;1.40;99.90;;;;;;5076079;28;20480;-68
2021/12/22 01:21:39;;;;;;;12.03;8.03;;;1.30;99.90;;;;;;5076093;28;20853;-69
2021/12/22 01:24:15;;;;;;;10.37;7.90;;;1.30;99.90;;;;;;5076318;28;20442;-69
2021/12/22 01:26:51;;;;;;;9.23;7.63;;;1.30;99.90;;;;;;5076087;28;20785;-69
2021/12/22 01:29:17;;;;;;;13.30;8.83;;;1.20;99.90;;;;;;5076324;28;20765;-69
2021/12/22 01:31:45;;;;;;;11.80;6.73;;;1.10;99.90;;;;;;5076051;28;20478;-69
2021/12/22 01:34:12;;;;;;;9.53;6.77;;;1.10;99.90;;;;;;5076110;28;20468;-69
2021/12/22 01:36:40;;;;;;;10.23;7.53;;;1.00;99.90;;;;;;5075588;28;20461;-69
2021/12/22 01:39:07;;;;;;;12.60;8.60;;;1.00;99.90;;;;;;5075755;28;20496;-69
2021/12/22 01:41:34;;;;;;;10.40;6.63;;;1.00;99.90;;;;;;5075984;28;20482;-69
2021/12/22 01:44:02;;;;;;;10.63;8.90;;;1.00;99.90;;;;;;5076183;28;20484;-69
2021/12/22 01:49:17;;;;;;;11.10;6.87;;;1.00;99.90;;;;;;5075204;28;20430;-69
2021/12/22 01:51:54;;;;;;;14.70;7.83;;;1.00;99.90;;;;;;5075369;28;20457;-69
2021/12/22 01:54:30;;;;;;;11.43;7.40;;;1.00;99.90;;;;;;5075593;28;20438;-70
2021/12/22 01:57:01;;;;;;;10.80;8.00;;;1.10;99.90;;;;;;5075366;28;20442;-68
2021/12/22 01:59:29;;;;;;;16.10;9.53;;;1.10;99.90;;;;;;5075203;28;20471;-69
2021/12/22 02:01:57;;;;;;;12.77;8.60;;;1.20;99.90;;;;;;5075008;28;20489;-68
2021/12/22 02:04:24;;;;;;;14.30;9.03;;;1.30;99.90;;;;;;5074723;28;20492;-69
2021/12/22 02:06:51;;;;;;;10.27;7.10;;;1.30;99.90;;;;;;5074921;28;20465;-69
2021/12/22 02:09:29;;;;;;;13.30;8.03;;;1.30;99.90;;;;;;5075210;28;20458;-69
2021/12/22 02:11:56;;;;;;;16.40;8.83;;;1.30;99.90;;;;;;5074930;28;20442;-69
2021/12/22 02:14:22;;;;;;;11.77;8.93;;;1.30;99.90;;;;;;5075201;28;20466;-69
2021/12/22 02:16:50;;;;;;;14.67;9.07;;;1.30;99.90;;;;;;5074523;28;20462;-69
2021/12/22 02:19:17;;;;;;;11.07;8.80;;;1.30;99.90;;;;;;5075053;28;20781;-69
2021/12/22 02:21:50;;;;;;;16.83;10.13;;;1.40;99.90;;;;;;5074857;28;20478;-69
2021/12/22 02:24:17;;;;;;;13.70;9.10;;;1.30;99.90;;;;;;5075222;28;20446;-69
2021/12/22 02:26:49;;;;;;;12.27;8.40;;;1.40;99.90;;;;;;5074590;28;20454;-69
2021/12/22 02:29:21;;;;;;;10.37;6.70;;;1.40;99.90;;;;;;5074760;28;20740;-69
2021/12/22 02:32:01;;;;;;;13.50;8.23;;;1.40;99.90;;;;;;5074845;28;20477;-69
2021/12/22 02:34:28;;;;;;;9.63;7.37;;;1.30;99.90;;;;;;5074881;28;20530;-69
2021/12/22 02:36:59;;;;;;;16.50;8.63;;;1.30;99.90;;;;;;5074839;28;20536;-69
2021/12/22 02:39:26;;;;;;;9.93;8.00;;;1.30;99.90;;;;;;5074519;28;20508;-69
2021/12/22 02:41:53;;;;;;;12.60;8.43;;;1.40;99.90;;;;;;5074733;28;20477;-69
2021/12/22 02:44:20;;;;;;;13.13;8.23;;;1.40;99.90;;;;;;5074716;28;20539;-69
2021/12/22 02:46:47;;;;;;;13.57;8.87;;;1.40;99.90;;;;;;5074337;28;20801;-68
2021/12/22 02:49:13;;;;;;;12.40;7.20;;;1.40;99.90;;;;;;5074567;28;20465;-68
2021/12/22 02:51:40;;;;;;;8.40;7.00;;;1.40;99.90;;;;;;5075008;28;20507;-68
2021/12/22 02:54:14;;;;;;;12.20;8.50;;;1.40;99.90;;;;;;5075004;28;20466;-70
2021/12/22 02:56:52;;;;;;;12.80;7.83;;;1.30;99.90;;;;;;5074714;28;20818;-69
2021/12/22 02:59:40;;;;;;;11.17;7.77;;;1.30;99.90;;;;;;5074632;28;20537;-68
2021/12/22 03:02:14;;;;;;;10.40;7.77;;;1.30;99.90;;;;;;5073988;28;20473;-70
2021/12/22 03:04:51;;;;;;;10.80;7.33;;;1.40;99.90;;;;;;5073898;28;20488;-68
2021/12/22 03:07:19;;;;;;;14.10;8.93;;;1.40;99.90;;;;;;5074301;28;20812;-69
2021/12/22 03:09:57;;;;;;;12.10;8.10;;;1.40;99.90;;;;;;5074193;28;20454;-69
2021/12/22 03:12:24;;;;;;;11.63;7.00;;;1.40;99.90;;;;;;5074322;28;20435;-70
2021/12/22 03:14:51;;;;;;;11.60;7.83;;;1.40;99.90;;;;;;5075889;28;20824;-70
2021/12/22 03:17:17;;;;;;;14.40;8.83;;;1.40;99.90;;;;;;5075445;28;20462;-68
2021/12/22 03:19:44;;;;;;;13.00;7.93;;;1.40;99.90;;;;;;5073903;28;20926;-69
2021/12/22 03:22:12;;;;;;;11.73;8.40;;;1.40;99.90;;;;;;5075026;28;20474;-69
2021/12/22 03:24:41;;;;;;;9.67;7.83;;;1.40;99.90;;;;;;5076790;28;20477;-69
2021/12/22 03:27:09;;;;;;;11.80;9.13;;;1.40;99.90;;;;;;5077643;28;20458;-69
2021/12/22 03:29:38;;;;;;;15.00;8.80;;;1.40;99.90;;;;;;5076340;28;20454;-69
2021/12/22 03:32:06;;;;;;;9.77;8.40;;;1.50;99.90;;;;;;5073998;28;20465;-68
2021/12/22 03:34:33;;;;;;;11.57;7.60;;;1.50;99.90;;;;;;5074362;28;20458;-68
2021/12/22 03:36:59;;;;;;;11.43;7.30;;;1.50;99.90;;;;;;5074310;28;20458;-70
2021/12/22 03:39:27;;;;;;;11.33;7.70;;;1.40;99.90;;;;;;5077092;28;20462;-69
2021/12/22 03:41:57;;;;;;;15.77;7.13;;;1.30;99.90;;;;;;5077982;28;20482;-69
2021/12/22 03:44:25;;;;;;;10.90;7.60;;;1.30;99.90;;;;;;5077702;28;20458;-69
2021/12/22 03:46:52;;;;;;;7.80;6.50;;;1.30;99.90;;;;;;5077569;28;20460;-69
2021/12/22 03:49:19;;;;;;;7.43;5.87;;;1.30;99.90;;;;;;5077870;28;20807;-69
2021/12/22 03:51:46;;;;;;;9.93;6.80;;;1.20;99.90;;;;;;5077811;28;20462;-69
2021/12/22 03:54:13;;;;;;;10.43;6.93;;;1.20;99.90;;;;;;5077639;28;20519;-69
2021/12/22 03:56:40;;;;;;;12.23;7.00;;;1.30;99.90;;;;;;5077512;28;20887;-69
2021/12/22 03:59:07;;;;;;;8.30;6.43;;;1.20;99.90;;;;;;5077439;28;20915;-69
2021/12/22 04:01:35;;;;;;;9.67;5.73;;;1.20;99.90;;;;;;5077841;28;20478;-69
2021/12/22 04:04:07;;;;;;;6.00;5.13;;;1.20;99.90;;;;;;5077088;28;20805;-69
2021/12/22 04:06:34;;;;;;;5.93;4.60;;;1.10;99.90;;;;;;5077758;28;20458;-69
2021/12/22 04:09:01;;;;;;;6.27;4.93;;;1.20;99.90;;;;;;5077499;28;20469;-69
2021/12/22 04:11:28;;;;;;;4.90;4.40;;;1.20;99.90;;;;;;5077652;28;20511;-69
2021/12/22 04:13:54;;;;;;;5.10;4.50;;;1.20;99.90;;;;;;5077516;28;20804;-69
2021/12/22 04:16:21;;;;;;;6.83;4.80;;;1.20;99.90;;;;;;5077256;28;20732;-69
2021/12/22 04:18:49;;;;;;;6.90;4.50;;;1.30;99.90;;;;;;5077439;28;20454;-69
2021/12/22 04:21:16;;;;;;;5.30;4.53;;;1.30;99.90;;;;;;5077189;28;20828;-69
2021/12/22 04:23:42;;;;;;;6.70;4.30;;;1.30;99.90;;;;;;5077913;28;20481;-69
2021/12/22 04:26:12;;;;;;;8.27;5.07;;;1.30;99.90;;;;;;5077588;28;20465;-69
2021/12/22 04:28:39;;;;;;;6.07;4.00;;;1.20;99.90;;;;;;5077269;28;20454;-69
2021/12/22 04:31:05;;;;;;;4.77;4.37;;;1.20;99.90;;;;;;5077081;28;20450;-69
2021/12/22 04:33:32;;;;;;;6.40;4.80;;;1.20;99.90;;;;;;5077348;28;20590;-69
2021/12/22 04:36:00;;;;;;;7.43;4.00;;;1.20;99.90;;;;;;5076995;28;20458;-69
2021/12/22 04:38:27;;;;;;;5.30;4.40;;;1.10;99.90;;;;;;5077034;28;20457;-69
2021/12/22 04:40:54;;;;;;;9.50;3.67;;;1.10;99.90;;;;;;5076760;28;20466;-69
2021/12/22 04:43:21;;;;;;;8.67;4.30;;;1.10;99.90;;;;;;5077249;28;20465;-69
2021/12/22 04:45:48;;;;;;;7.67;4.00;;;1.10;99.90;;;;;;5076799;28;20523;-69
2021/12/22 04:48:14;;;;;;;9.23;4.00;;;1.00;99.90;;;;;;5076838;28;20469;-69
2021/12/22 04:50:41;;;;;;;5.07;4.00;;;1.00;99.90;;;;;;5076633;28;20789;-69
2021/12/22 04:53:16;;;;;;;6.97;4.00;;;1.00;99.90;;;;;;5077770;28;20450;-70
2021/12/22 04:55:43;;;;;;;8.27;4.67;;;0.90;99.90;;;;;;5080690;28;20446;-68
2021/12/22 04:58:09;;;;;;;5.13;4.50;;;0.90;99.90;;;;;;5077192;28;20481;-69
2021/12/22 05:00:38;;;;;;;3.80;3.50;;;0.90;99.90;;;;;;5077258;28;20462;-69
2021/12/22 05:03:05;;;;;;;5.70;3.73;;;0.90;99.90;;;;;;5076996;28;20478;-69
2021/12/22 05:05:32;;;;;;;5.43;4.00;;;0.90;99.90;;;;;;5076590;28;20535;-69
2021/12/22 05:08:00;;;;;;;5.70;3.97;;;0.90;99.90;;;;;;5076496;28;20457;-68
2021/12/22 05:10:29;;;;;;;8.97;4.57;;;0.90;99.90;;;;;;5076496;28;20461;-68
2021/12/22 05:12:55;;;;;;;6.00;4.17;;;0.80;99.90;;;;;;5076153;28;20446;-69
2021/12/22 05:15:25;;;;;;;4.90;4.40;;;0.80;99.90;;;;;;5076694;28;20552;-69
2021/12/22 05:20:37;;;;;;;5.83;5.23;;;0.90;99.90;;;;;;5075798;28;20437;-69
2021/12/22 05:23:04;;;;;;;8.30;5.03;;;0.90;99.90;;;;;;5075679;28;20976;-68
2021/12/22 05:25:32;;;;;;;7.57;5.53;;;0.80;99.90;;;;;;5075755;28;20801;-69
2021/12/22 05:27:58;;;;;;;8.83;5.70;;;0.80;99.90;;;;;;5075763;28;20458;-69
2021/12/22 05:30:25;;;;;;;8.67;5.60;;;0.80;99.90;;;;;;5075947;28;20462;-69
2021/12/22 05:32:54;;;;;;;6.50;5.40;;;0.80;99.90;;;;;;5075934;28;20469;-68
2021/12/22 05:35:21;;;;;;;6.57;5.83;;;0.70;99.90;;;;;;5076174;28;20543;-68
2021/12/22 05:37:48;;;;;;;7.30;5.60;;;0.80;99.90;;;;;;5075764;28;20465;-69
2021/12/22 05:40:14;;;;;;;12.63;6.40;;;0.80;99.90;;;;;;5075824;28;20454;-69
2021/12/22 05:42:43;;;;;;;8.67;6.50;;;0.80;99.90;;;;;;5075519;28;20474;-68
2021/12/22 05:45:13;;;;;;;9.30;6.53;;;0.80;99.90;;;;;;5075662;28;20493;-70
2021/12/22 05:47:39;;;;;;;9.07;7.00;;;0.80;99.90;;;;;;5075719;28;20466;-69
2021/12/22 05:50:07;;;;;;;8.10;6.43;;;0.80;99.90;;;;;;5075608;28;20471;-69
2021/12/22 05:52:34;;;;;;;8.03;6.67;;;0.80;99.90;;;;;;5075640;28;20856;-69
2021/12/22 05:55:01;;;;;;;10.80;7.50;;;0.80;99.90;;;;;;5075588;28;20466;-69
2021/12/22 05:57:28;;;;;;;11.80;7.60;;;0.80;99.90;;;;;;5075554;28;20462;-69
2021/12/22 05:59:56;;;;;;;13.73;8.57;;;0.70;99.90;;;;;;5075044;28;20462;-69
2021/12/22 06:02:23;;;;;;;10.57;7.40;;;0.70;99.90;;;;;;5074552;28;20478;-69
2021/12/22 06:04:49;;;;;;;11.47;7.83;;;0.70;99.90;;;;;;5074802;28;20493;-69
2021/12/22 06:07:16;;;;;;;10.57;8.20;;;0.70;99.90;;;;;;5075326;28;20466;-69
2021/12/22 06:09:43;;;;;;;14.47;8.00;;;0.60;99.90;;;;;;5075125;28;20462;-69
2021/12/22 06:12:10;;;;;;;13.20;9.27;;;0.60;99.90;;;;;;5075099;28;20941;-69
2021/12/22 06:14:36;;;;;;;14.20;7.90;;;0.60;99.90;;;;;;5074956;28;20470;-69
2021/12/22 06:17:05;;;;;;;13.70;8.33;;;0.60;99.90;;;;;;5075159;28;20458;-69
2021/12/22 06:19:32;;;;;;;13.30;8.50;;;0.60;99.90;;;;;;5075106;28;20470;-69
2021/12/22 06:21:58;;;;;;;19.30;9.27;;;0.60;99.90;;;;;;5075346;28;20493;-69
2021/12/22 06:24:25;;;;;;;15.70;8.73;;;0.60;99.90;;;;;;5074659;28;20461;-69
2021/12/22 06:26:52;;;;;;;12.30;8.03;;;0.60;99.90;;;;;;5074833;28;20899;-69
2021/12/22 06:29:18;;;;;;;16.00;9.63;;;0.60;99.90;;;;;;5075617;28;20469;-70
2021/12/22 06:31:45;;;;;;;16.97;9.20;;;0.60;99.90;;;;;;5074737;28;20454;-70
2021/12/22 06:34:13;;;;;;;12.97;8.87;;;0.60;99.90;;;;;;5075368;28;20755;-69
2021/12/22 06:36:41;;;;;;;12.77;8.80;;;0.60;99.90;;;;;;5074796;28;20454;-69
2021/12/22 06:39:08;;;;;;;13.77;10.77;;;0.60;99.90;;;;;;5074673;28;20458;-69
2021/12/22 06:41:35;;;;;;;13.57;9.50;;;0.60;99.90;;;;;;5075981;28;20758;-69
2021/12/22 06:44:02;;;;;;;12.90;8.27;;;0.60;99.90;;;;;;5077537;28;20515;-69
2021/12/22 06:46:29;;;;;;;13.67;8.90;;;0.60;99.90;;;;;;5075597;28;20521;-69
2021/12/22 06:48:55;;;;;;;17.03;9.20;;;0.50;99.90;;;;;;5074859;28;20470;-70
2021/12/22 06:51:23;;;;;;;13.83;9.77;;;0.60;99.90;;;;;;5074606;28;20964;-69
2021/12/22 06:53:50;;;;;;;17.87;9.30;;;0.60;99.90;;;;;;5074848;28;20792;-70
2021/12/22 06:56:17;;;;;;;14.40;8.97;;;0.60;99.90;;;;;;5074588;28;20466;-69
2021/12/22 06:58:44;;;;;;;14.73;8.80;;;0.50;99.90;;;;;;5074771;28;20484;-68
2021/12/22 07:01:16;;;;;;;16.47;8.97;;;0.50;99.90;;;;;;5074734;28;20466;-69
2021/12/22 07:03:43;;;;;;;18.20;10.23;;;0.50;99.90;;;;;;5073880;28;22026;-70
2021/12/22 07:06:09;;;;;;;15.77;9.20;;;0.50;99.90;;;;;;5074774;28;20438;-70
2021/12/22 07:08:37;;;;;;;15.00;10.30;;;0.50;99.90;;;;;;5074589;28;20461;-70
2021/12/22 07:11:04;;;;;;;16.83;10.33;;;0.50;99.90;;;;;;5074021;28;20459;-70
2021/12/22 07:13:32;;;;;;;16.40;10.13;;;0.50;99.90;;;;;;5075940;28;20454;-69
2021/12/22 07:15:59;;;;;;;13.70;9.47;;;0.50;99.90;;;;;;5078575;28;20466;-69
2021/12/22 07:18:26;;;;;;;17.37;9.77;;;0.50;99.90;;;;;;5078428;28;20910;-69
2021/12/22 07:20:53;;;;;;;14.60;9.83;;;0.50;99.90;;;;;;5078182;28;20541;-69
2021/12/22 07:23:20;;;;;;;18.27;10.20;;;0.50;99.90;;;;;;5078435;28;20482;-69
2021/12/22 07:25:48;;;;;;;14.23;10.00;;;0.60;99.90;;;;;;5078906;28;20458;-69
2021/12/22 07:28:15;;;;;;;12.37;9.30;;;0.60;99.90;;;;;;5078544;28;20465;-69
2021/12/22 07:30:41;;;;;;;18.70;9.87;;;0.50;99.90;;;;;;5077757;28;20519;-70
2021/12/22 07:33:08;;;;;;;14.50;8.70;;;0.50;99.90;;;;;;5077985;28;20458;-68
2021/12/22 07:35:47;;;;;;;16.40;9.20;;;0.50;99.90;;;;;;5078277;28;20545;-69
2021/12/22 07:38:29;;;;;;;20.80;10.77;;;0.50;99.90;;;;;;5078329;28;20469;-69
2021/12/22 07:40:59;;;;;;;16.00;10.00;;;0.60;99.90;;;;;;5078898;28;20435;-69
2021/12/22 07:43:26;;;;;;;15.93;10.10;;;0.60;99.90;;;;;;5078851;28;20481;-69
2021/12/22 07:45:53;;;;;;;20.30;9.70;;;0.60;99.90;;;;;;5079017;28;20450;-69
2021/12/22 07:48:20;;;;;;;18.60;10.63;;;0.60;99.90;;;;;;5079370;28;20487;-69
2021/12/22 07:50:50;;;;;;;17.33;9.57;;;0.50;99.90;;;;;;5078075;28;20861;-69
2021/12/22 07:53:16;;;;;;;16.90;10.43;;;0.60;99.90;;;;;;5077656;28;20918;-70
2021/12/22 07:55:45;;;;;;;21.07;10.27;;;0.60;99.90;;;;;;5077808;28;20473;-69
2021/12/22 07:58:13;;;;;;;18.73;11.10;;;0.60;99.90;;;;;;5077565;28;20450;-70
2021/12/22 08:00:40;;;;;;;17.57;10.57;;;0.70;99.90;;;;;;5077465;28;20476;-69
2021/12/22 08:03:08;;;;;;;17.10;11.20;;;0.70;99.90;;;;;;5077016;28;20478;-69
2021/12/22 08:05:35;;;;;;;17.10;11.07;;;0.70;99.90;;;;;;5076736;28;20516;-69
2021/12/22 08:08:02;;;;;;;19.00;11.13;;;0.70;99.90;;;;;;5076885;28;20914;-68
2021/12/22 08:10:29;;;;;;;16.90;12.17;;;0.70;99.90;;;;;;5077419;28;20485;-69
2021/12/22 08:12:59;;;;;;;17.50;10.77;;;0.70;99.90;;;;;;5077879;28;20469;-69
2021/12/22 08:15:27;;;;;;;19.63;11.40;;;0.80;99.90;;;;;;5077789;28;20454;-69
2021/12/22 08:17:54;;;;;;;18.97;11.27;;;0.80;99.90;;;;;;5077988;28;20472;-70
2021/12/22 08:20:22;;;;;;;18.30;12.23;;;0.90;99.90;;;;;;5078041;28;20468;-69
2021/12/22 08:22:49;;;;;;;19.93;10.77;;;0.80;99.90;;;;;;5078091;28;20482;-70
2021/12/22 08:25:16;;;;;;;18.10;11.20;;;0.90;99.90;;;;;;5077085;28;20465;-69
2021/12/22 08:27:42;;;;;;;18.57;11.70;;;0.90;99.90;;;;;;5077862;28;20454;-69
2021/12/22 08:30:12;;;;;;;17.73;11.07;;;0.90;99.90;;;;;;5077540;28;20478;-69
2021/12/22 08:32:40;;;;;;;20.80;11.30;;;1.00;99.90;;;;;;5077134;28;20485;-70
2021/12/22 08:35:10;;;;;;;17.70;11.73;;;1.00;99.90;;;;;;5077145;28;20454;-70
2021/12/22 08:40:25;;;;;;;18.70;10.50;;;1.10;99.90;;;;;;5077050;28;20896;-70
2021/12/22 08:42:55;;;;;;;19.10;10.87;;;1.10;99.90;;;;;;5077748;28;20470;-70
2021/12/22 08:45:22;;;;;;;17.33;10.23;;;1.20;99.90;;;;;;5076771;28;20571;-69
2021/12/22 08:47:50;;;;;;;19.33;9.57;;;1.20;99.90;;;;;;5076871;28;20465;-70
2021/12/22 08:50:19;;;;;;;18.33;10.00;;;1.30;99.90;;;;;;5076799;28;20471;-68
2021/12/22 08:52:47;;;;;;;24.40;10.37;;;1.40;99.90;;;;;;5077028;28;20458;-69
2021/12/22 08:55:15;;;;;;;18.60;11.40;;;1.40;99.90;;;;;;5078786;28;20469;-68
2021/12/22 08:57:42;;;;;;;16.20;11.13;;;1.40;1.00;;;;;;5078333;28;20780;-68
2021/12/22 09:00:12;;;;;;;16.00;9.47;;;1.40;1.00;;;;;;5078995;28;20481;-69
2021/12/22 09:02:40;;;;;;;20.63;10.63;;;1.40;1.00;;;;;;5077417;28;20556;-69
2021/12/22 09:05:08;;;;;;;16.20;10.40;;;1.50;99.90;;;;;;5076755;28;20481;-69
2021/12/22 09:07:38;;;;;;;17.83;12.00;;;1.40;99.90;;;;;;5077645;28;20465;-70
2021/12/22 09:10:05;;;;;;;19.80;11.40;;;1.40;99.90;;;;;;5077426;28;20465;-69
2021/12/22 09:12:32;;;;;;;18.07;11.20;;;1.40;1.00;;;;;;5076868;28;20462;-69
2021/12/22 09:14:59;;;;;;;20.90;12.50;;;1.40;99.90;;;;;;5076175;28;20473;-69
2021/12/22 09:17:26;;;;;;;20.77;12.60;;;1.50;99.90;;;;;;5076385;28;20793;-69
2021/12/22 09:19:53;;;;;;;19.20;12.30;;;1.50;1.00;;;;;;5076172;28;20849;-70
2021/12/22 09:22:21;;;;;;;24.10;12.40;;;1.50;99.90;;;;;;5076068;28;20458;-69
2021/12/22 09:24:49;;;;;;;21.00;11.90;;;1.60;99.90;;;;;;5076080;28;20538;-69
2021/12/22 09:27:15;;;;;;;17.83;12.63;;;1.60;99.90;;;;;;5076119;28;20454;-69
2021/12/22 09:29:44;;;;;;;23.33;13.90;;;1.60;99.90;;;;;;5075944;28;20747;-68
2021/12/22 09:32:14;;;;;;;24.60;14.57;;;1.60;99.90;;;;;;5076160;28;20462;-68
2021/12/22 09:34:42;;;;;;;27.10;14.20;;;1.60;99.90;;;;;;5076016;28;20450;-69
2021/12/22 09:37:09;;;;;;;21.47;12.73;;;1.70;99.90;;;;;;5075015;28;20450;-70
2021/12/22 09:39:40;;;;;;;20.13;13.10;;;1.70;44.20;;;;;;5075578;28;20458;-69
2021/12/22 09:42:07;;;;;;;20.00;12.97;;;1.70;61.20;;;;;;5075749;28;20469;-68
2021/12/22 09:44:42;;;;;;;20.90;12.70;;;1.70;99.90;;;;;;5075840;28;20871;-69
2021/12/22 09:47:09;;;;;;;20.80;13.30;;;1.80;1.00;;;;;;5075835;28;20438;-69
2021/12/22 09:49:59;;;;;;;21.50;13.60;;;1.80;1.00;;;;;;5076045;28;20568;-69
2021/12/22 09:52:27;;;;;;;22.50;15.17;;;1.80;1.00;;;;;;5075513;28;20445;-69
2021/12/22 09:54:59;;;;;;;18.73;13.70;;;1.80;99.90;;;;;;5076533;28;20811;-69
2021/12/22 09:57:27;;;;;;;21.20;14.27;;;1.70;23.10;;;;;;5075701;28;20452;-69
2021/12/22 09:59:55;;;;;;;23.30;14.67;;;1.70;99.90;;;;;;5075816;28;20458;-69
2021/12/22 10:02:25;;;;;;;26.13;14.80;;;1.70;77.80;;;;;;5076639;28;20462;-70
2021/12/22 10:04:52;;;;;;;20.27;14.40;;;1.70;1.00;;;;;;5076209;28;20522;-70
2021/12/22 10:07:24;;;;;;;26.80;15.97;;;1.80;1.00;;;;;;5077210;28;20458;-71
2021/12/22 10:09:52;;;;;;;22.97;15.10;;;1.80;1.00;;;;;;5077334;28;20464;-70
2021/12/22 10:12:22;;;;;;;21.20;15.30;;;1.80;99.90;;;;;;5076799;28;20458;-70
2021/12/22 10:14:52;;;;;;;24.73;15.43;;;1.80;46.20;;;;;;5075811;28;20454;-69
2021/12/22 10:17:34;;;;;;;25.00;16.43;;;1.90;27.90;;;;;;5075555;28;20552;-69
2021/12/22 10:20:04;;;;;;;25.07;15.80;;;1.90;1.00;;;;;;5075557;28;20534;-69
2021/12/22 10:22:33;;;;;;;22.03;15.17;;;1.90;1.00;;;;;;5075034;28;20438;-70
2021/12/22 10:25:08;;;;;;;20.30;14.77;;;2.00;1.00;;;;;;5075508;28;20489;-69
2021/12/22 10:27:37;;;;;;;24.43;15.53;;;2.00;1.00;;;;;;5075431;28;20438;-69
2021/12/22 10:30:23;;;;;;;27.70;16.00;;;2.00;1.00;;;;;;5075038;28;20961;-69
2021/12/22 10:33:03;;;;;;;24.47;15.00;;;2.00;1.00;;;;;;5075602;28;20778;-68
2021/12/22 10:35:34;;;;;;;31.80;16.50;;;2.00;1.00;;;;;;5074955;28;20445;-69
2021/12/22 10:38:02;;;;;;;24.10;15.63;;;2.10;1.00;;;;;;5075470;28;20449;-70
2021/12/22 10:40:32;;;;;;;23.70;15.47;;;2.10;99.90;;;;;;5075302;28;20446;-69
2021/12/22 10:43:02;;;;;;;20.93;14.50;;;2.10;99.90;;;;;;5075077;28;20465;-70
2021/12/22 10:45:31;;;;;;;22.20;13.33;;;2.10;99.90;;;;;;5075179;28;20459;-70
2021/12/22 10:50:46;;;;;;;22.33;14.90;;;2.10;99.90;;;;;;5075139;28;20765;-69
2021/12/22 10:53:15;;;;;;;26.77;15.27;;;2.10;99.90;;;;;;5075282;28;20880;-69
2021/12/22 10:55:43;;;;;;;23.97;14.53;;;2.10;99.90;;;;;;5075336;28;20458;-69
2021/12/22 10:58:27;;;;;;;23.17;14.43;;;2.20;16.50;;;;;;5075018;28;20469;-68
2021/12/22 11:01:08;;;;;;;24.83;14.70;;;2.10;38.90;;;;;;5074797;28;20439;-69
2021/12/22 11:03:40;;;;;;;20.90;13.60;;;2.20;8.10;;;;;;5074275;28;20470;-69
2021/12/22 11:06:16;;;;;;;29.80;17.40;;;2.20;1.00;;;;;;5074832;28;20446;-69
2021/12/22 11:08:53;;;;;;;24.63;15.57;;;2.30;1.00;;;;;;5074987;28;20447;-69
2021/12/22 11:11:20;;;;;;;23.20;14.33;;;2.30;1.00;;;;;;5074339;28;20891;-69
2021/12/22 11:14:19;;;;;;;23.07;14.27;;;2.40;1.00;;;;;;5074826;28;20454;-69
2021/12/22 11:16:55;;;;;;;20.67;13.90;;;2.40;1.00;;;;;;5074999;28;20449;-70
2021/12/22 11:19:22;;;;;;;22.90;13.67;;;2.40;1.00;;;;;;5075176;28;20473;-69
2021/12/22 11:22:01;;;;;;;23.73;13.67;;;2.40;1.00;;;;;;5074273;28;20505;-69
2021/12/22 11:24:31;;;;;;;23.97;14.30;;;2.50;1.00;;;;;;5074441;28;20470;-69
2021/12/22 11:26:58;;;;;;;21.37;14.13;;;2.50;99.90;;;;;;5074519;28;20465;-69
2021/12/22 11:29:27;;;;;;;23.17;14.40;;;2.50;99.90;;;;;;5074778;28;20535;-69
2021/12/22 11:31:55;;;;;;;22.63;13.43;;;2.60;99.90;;;;;;5075185;28;20933;-69
2021/12/22 11:34:23;;;;;;;22.20;12.90;;;2.70;99.90;;;;;;5074677;28;20969;-69
2021/12/22 11:36:53;;;;;;;19.93;14.70;;;2.70;56.80;;;;;;5075141;28;20835;-69
2021/12/22 11:39:21;;;;;;;22.47;13.70;;;2.70;1.00;;;;;;5074778;28;20434;-69
2021/12/22 11:41:58;;;;;;;20.57;13.70;;;2.80;1.00;;;;;;5075020;28;20838;-70
2021/12/22 11:44:28;;;;;;;23.70;13.43;;;2.80;1.00;;;;;;5074657;28;20503;-70
2021/12/22 11:46:57;;;;;;;20.30;14.00;;;2.80;1.00;;;;;;5074367;28;20458;-69
2021/12/22 11:49:24;;;;;;;21.10;13.87;;;2.80;1.00;;;;;;5074600;28;20465;-69
2021/12/22 11:51:52;;;;;;;20.13;13.80;;;2.90;1.00;;;;;;5076745;28;20465;-70
2021/12/22 11:54:25;;;;;;;23.70;14.27;;;3.00;1.00;;;;;;5075626;28;20446;-69
2021/12/22 11:56:54;;;;;;;26.40;15.17;;;3.20;1.00;;;;;;5074538;28;20454;-70
2021/12/22 11:59:37;;;;;;;23.20;13.37;;;3.20;1.00;;;;;;5075456;28;20462;-70
2021/12/22 12:02:24;;;;;;;18.43;13.50;;;3.30;99.90;;;;;;5078066;28;20439;-69
2021/12/22 12:04:52;;;;;;;22.60;14.00;;;3.50;99.90;;;;;;5077648;28;20600;-69
2021/12/22 12:07:42;;;;;;;20.27;14.27;;;3.80;99.90;;;;;;5077930;28;20464;-69
2021/12/22 12:10:45;;;;;;;20.33;13.37;;;4.40;99.90;;;;;;5078236;28;20784;-70
2021/12/22 12:13:36;;;;;;;21.70;14.07;;;4.80;1.00;;;;;;5078322;28;20449;-70
2021/12/22 12:22:19;;;;;;;24.13;14.47;;;5.40;1.00;;;;;;5077552;28;20434;-69
2021/12/22 12:24:49;;;;;;;21.67;12.50;;;5.50;1.00;;;;;;5077607;28;20479;-70
2021/12/22 12:27:40;;;;;;;22.13;12.63;;;5.70;99.90;;;;;;5077683;28;20549;-68
2021/12/22 12:30:10;;;;;;;20.20;13.03;;;5.90;99.90;;;;;;5077444;28;20500;-69
2021/12/22 12:33:07;;;;;;;19.83;12.60;;;5.50;99.90;;;;;;5077486;28;20466;-69
2021/12/22 12:35:40;;;;;;;21.77;13.23;;;5.30;99.90;;;;;;5077412;28;20458;-69
2021/12/22 12:38:12;;;;;;;22.63;13.23;;;5.40;99.90;;;;;;5077436;28;20547;-71
2021/12/22 12:41:25;;;;;;;18.90;13.33;;;5.40;99.90;;;;;;5077372;28;20438;-71
2021/12/22 12:44:13;;;;;;;18.20;12.87;;;5.30;99.90;;;;;;5076870;28;20553;-72
2021/12/22 12:46:46;;;;;;;17.57;12.47;;;5.20;99.90;;;;;;5077134;28;20949;-71
2021/12/22 12:49:34;;;;;;;22.80;12.97;;;4.70;99.90;;;;;;5077148;28;20443;-69
2021/12/22 12:52:07;;;;;;;20.80;11.40;;;4.20;99.90;;;;;;5077313;28;20454;-70
2021/12/22 12:54:39;;;;;;;19.60;11.90;;;4.00;1.00;;;;;;5077062;28;20765;-69
2021/12/22 12:57:26;;;;;;;17.33;12.90;;;3.80;1.00;;;;;;5076983;28;20519;-68
2021/12/22 12:59:57;;;;;;;17.13;11.73;;;3.60;1.00;;;;;;5076977;28;20825;-70
2021/12/22 13:02:26;;;;;;;18.00;13.10;;;3.60;1.00;;;;;;5076362;28;20446;-70
2021/12/22 13:05:01;;;;;;;21.03;13.60;;;3.50;1.00;;;;;;5076799;28;20482;-71
2021/12/22 13:07:31;;;;;;;18.87;13.27;;;3.40;1.00;;;;;;5080781;28;20457;-71
2021/12/22 13:10:01;;;;;;;20.60;13.33;;;3.50;1.00;;;;;;5086788;28;20439;-69
2021/12/22 13:18:04;;;;;;;18.83;13.13;;;3.90;1.00;;;;;;5076142;28;20514;-69
2021/12/22 13:20:34;;;;;;;19.37;13.30;;;3.90;1.00;;;;;;5076307;28;20462;-69